createdAt,value
2023-04-11T00:00:23.697Z,50.10
2023-04-11T00:04:26.885Z,49.70
2023-04-11T00:08:30.002Z,49.60
2023-04-11T00:12:32.667Z,49.60
2023-04-11T00:16:35.908Z,49.60
2023-04-11T00:20:38.574Z,49.40
2023-04-11T00:24:41.098Z,49.40
2023-04-11T00:28:43.725Z,49.60
2023-04-11T00:32:47.739Z,49.80
2023-04-11T00:36:50.430Z,50.10
2023-04-11T00:40:53.460Z,50.40
2023-04-11T00:44:56.020Z,50.90
2023-04-11T00:48:59.433Z,50.60
2023-04-11T00:53:03.171Z,50.60
2023-04-11T00:57:07.237Z,51.00
2023-04-11T01:01:10.426Z,51.40
2023-04-11T01:05:14.847Z,51.70
2023-04-11T01:09:18.304Z,51.90
2023-04-11T01:13:21.005Z,52.40
2023-04-11T01:17:25.880Z,52.90
2023-04-11T01:21:28.673Z,53.30
2023-04-11T01:25:31.274Z,53.20
2023-04-11T01:29:33.868Z,52.70
2023-04-11T01:33:38.799Z,52.60
2023-04-11T01:37:41.331Z,52.50
2023-04-11T01:41:43.959Z,52.30
2023-04-11T01:45:46.476Z,52.30
2023-04-11T01:49:49.210Z,52.60
2023-04-11T01:53:51.795Z,52.80
2023-04-11T01:57:54.351Z,52.90
2023-04-11T02:01:57.384Z,52.70
2023-04-11T02:06:00.256Z,52.90
2023-04-11T02:10:03.570Z,52.90
2023-04-11T02:14:06.739Z,53.20
2023-04-11T02:18:09.634Z,53.30
2023-04-11T02:22:12.783Z,53.60
2023-04-11T02:26:15.585Z,53.70
2023-04-11T02:30:18.081Z,54.10
2023-04-11T02:34:20.813Z,54.40
2023-04-11T02:38:23.655Z,54.60
2023-04-11T02:42:27.024Z,54.40
2023-04-11T02:46:29.639Z,54.60
2023-04-11T02:50:32.605Z,55.00
2023-04-11T02:54:35.398Z,55.00
2023-04-11T02:58:42.176Z,55.40
2023-04-11T03:02:47.482Z,55.70
2023-04-11T03:06:50.668Z,56.20
2023-04-11T03:10:53.334Z,55.90
2023-04-11T03:14:58.395Z,56.50
2023-04-11T03:19:01.040Z,56.80
2023-04-11T03:23:03.722Z,57.30
2023-04-11T03:27:06.510Z,56.80
2023-04-11T03:31:10.027Z,56.40
2023-04-11T03:35:12.772Z,56.20
2023-04-11T03:39:21.710Z,56.00
2023-04-11T03:43:26.335Z,56.00
2023-04-11T03:47:28.922Z,55.70
2023-04-11T03:51:31.735Z,56.10
2023-04-11T03:55:41.583Z,57.80
2023-04-11T03:59:47.982Z,58.20
2023-04-11T04:03:51.481Z,58.10
2023-04-11T04:07:55.906Z,58.60
2023-04-11T04:12:11.705Z,58.30
2023-04-11T04:16:28.562Z,57.60
2023-04-11T04:20:34.467Z,57.60
2023-04-11T04:24:42.062Z,57.50
2023-04-11T04:28:54.040Z,57.50
2023-04-11T04:33:04.976Z,57.40
2023-04-11T04:37:10.108Z,57.30
2023-04-11T04:41:22.294Z,57.70
2023-04-11T04:45:32.692Z,57.60
2023-04-11T04:49:36.374Z,58.10
2023-04-11T04:53:39.106Z,58.30
2023-04-11T04:57:44.024Z,58.20
2023-04-11T05:01:46.859Z,58.50
2023-04-11T05:05:50.779Z,58.40
2023-04-11T05:09:53.907Z,58.70
2023-04-11T05:14:00.454Z,58.90
2023-04-11T05:18:03.489Z,58.90
2023-04-11T05:22:09.612Z,58.40
2023-04-11T05:26:16.076Z,57.90
2023-04-11T05:30:19.101Z,57.80
2023-04-11T05:34:25.248Z,57.80
2023-04-11T05:38:28.817Z,57.80
2023-04-11T05:42:31.400Z,57.70
2023-04-11T05:46:38.351Z,57.60
2023-04-11T05:50:43.057Z,57.50
2023-04-11T05:54:45.613Z,57.30
2023-04-11T05:58:48.363Z,57.10
2023-04-11T06:02:51.150Z,56.80
2023-04-11T06:06:54.304Z,56.70
2023-04-11T06:10:56.759Z,56.50
2023-04-11T06:14:59.493Z,56.30
2023-04-11T06:19:02.062Z,56.30
2023-04-11T06:23:04.750Z,56.00
2023-04-11T06:27:10.095Z,55.90
2023-04-11T06:31:12.834Z,55.70
2023-04-11T06:35:15.601Z,56.20
2023-04-11T06:39:18.581Z,56.30
2023-04-11T06:43:21.138Z,55.90
2023-04-11T06:47:23.692Z,56.10
2023-04-11T06:51:26.561Z,55.80
2023-04-11T06:55:29.102Z,55.40
2023-04-11T06:59:32.095Z,55.30
2023-04-11T07:03:34.785Z,55.30
2023-04-11T07:07:37.734Z,54.80
2023-04-11T07:11:40.794Z,54.90
2023-04-11T07:15:43.540Z,54.60
2023-04-11T07:19:46.816Z,54.30
2023-04-11T07:23:49.864Z,53.90
2023-04-11T07:27:53.142Z,53.70
2023-04-11T07:31:55.910Z,53.50
2023-04-11T07:35:58.500Z,53.40
2023-04-11T07:40:01.086Z,53.40
2023-04-11T07:44:09.602Z,53.30
2023-04-11T07:48:12.087Z,53.20
2023-04-11T07:52:14.634Z,53.20
2023-04-11T07:56:17.276Z,53.40
2023-04-11T08:00:23.270Z,53.20
2023-04-11T08:04:26.233Z,53.30
2023-04-11T08:08:28.794Z,53.30
2023-04-11T08:12:31.313Z,53.10
2023-04-11T08:16:34.820Z,53.20
2023-04-11T08:20:37.404Z,53.50
2023-04-11T08:24:39.971Z,53.50
2023-04-11T08:28:43.495Z,53.60
2023-04-11T08:32:46.254Z,54.00
2023-04-11T08:36:48.759Z,53.70
2023-04-11T08:40:51.861Z,53.90
2023-04-11T08:45:05.980Z,53.80
2023-04-11T08:49:08.504Z,53.70
2023-04-11T08:53:11.717Z,53.50
2023-04-11T08:57:28.011Z,53.50
2023-04-11T09:01:35.180Z,53.60
2023-04-11T09:05:41.766Z,53.50
2023-04-11T09:09:44.391Z,53.20
2023-04-11T09:13:46.936Z,53.00
2023-04-11T09:17:49.970Z,52.30
2023-04-11T09:21:53.683Z,51.70
2023-04-11T09:25:57.085Z,50.90
2023-04-11T09:30:02.374Z,49.40
2023-04-11T09:34:04.947Z,49.10
2023-04-11T09:38:09.381Z,47.90
2023-04-11T09:42:23.045Z,47.70
2023-04-11T09:46:25.875Z,47.60
2023-04-11T09:50:28.520Z,47.10
2023-04-11T09:54:33.478Z,47.00
2023-04-11T09:58:36.748Z,46.80
2023-04-11T10:02:39.465Z,47.10
2023-04-11T10:06:49.907Z,46.50
2023-04-11T10:10:53.109Z,47.00
2023-04-11T10:14:56.493Z,47.20
2023-04-11T10:19:00.302Z,47.10
2023-04-11T10:23:03.100Z,46.80
2023-04-11T10:27:05.836Z,46.80
2023-04-11T10:31:17.451Z,46.50
2023-04-11T10:35:21.686Z,46.00
2023-04-11T10:40:00.921Z,45.70
2023-04-11T10:44:12.662Z,45.80
2023-04-11T10:48:15.265Z,45.70
2023-04-11T10:52:23.898Z,45.80
2023-04-11T10:56:48.880Z,45.70
2023-04-11T11:00:57.772Z,45.80
2023-04-11T11:05:01.737Z,45.80
2023-04-11T11:09:20.037Z,45.60
2023-04-11T11:13:22.576Z,45.50
2023-04-11T11:17:25.714Z,44.60
2023-04-11T11:21:30.207Z,44.10
2023-04-11T11:25:33.329Z,43.80
2023-04-11T11:29:38.032Z,43.80
2023-04-11T11:33:44.284Z,43.70
2023-04-11T11:37:46.822Z,43.70
2023-04-11T11:41:49.910Z,43.90
2023-04-11T11:46:08.616Z,43.80
2023-04-11T11:50:12.174Z,43.70
2023-04-11T11:54:14.872Z,43.20
2023-04-11T11:58:19.591Z,43.30
2023-04-11T12:02:27.013Z,43.30
2023-04-11T12:06:32.920Z,43.40
2023-04-11T12:10:37.623Z,42.70
2023-04-11T12:14:40.792Z,42.80
2023-04-11T12:18:43.753Z,42.50
2023-04-11T12:23:07.594Z,42.00
2023-04-11T12:27:12.660Z,42.30
2023-04-11T12:31:15.826Z,42.40
2023-04-11T12:35:20.019Z,42.00
2023-04-11T12:39:25.515Z,41.70
2023-04-11T12:43:28.107Z,40.70
2023-04-11T12:47:30.830Z,40.70
2023-04-11T12:51:33.428Z,40.30
2023-04-11T12:55:36.195Z,40.20
2023-04-11T12:59:40.741Z,40.00
2023-04-11T13:04:20.077Z,39.80
2023-04-11T13:08:27.042Z,39.60
2023-04-11T13:12:33.392Z,39.70
2023-04-11T13:17:04.331Z,39.50
2023-04-11T13:21:21.838Z,38.90
2023-04-11T13:25:50.117Z,39.00
2023-04-11T13:29:55.908Z,39.00
2023-04-11T13:34:05.004Z,38.70
2023-04-11T13:38:17.915Z,38.90
2023-04-11T13:42:23.285Z,39.10
2023-04-11T13:46:26.317Z,39.30
2023-04-11T13:50:31.120Z,39.20
2023-04-11T13:54:33.661Z,39.10
2023-04-11T13:58:36.995Z,38.60
2023-04-11T14:02:40.393Z,38.50
2023-04-11T14:07:09.104Z,38.90
2023-04-11T14:11:11.950Z,39.30
2023-04-11T14:15:16.573Z,39.70
2023-04-11T14:19:19.389Z,40.10
2023-04-11T14:23:22.332Z,40.60
2023-04-11T14:27:24.911Z,41.50
2023-04-11T14:31:28.523Z,42.50
2023-04-11T14:35:31.839Z,43.00
2023-04-11T14:39:34.494Z,43.20
2023-04-11T14:43:37.213Z,43.40
2023-04-11T14:47:43.989Z,43.50
2023-04-11T14:51:46.930Z,43.80
2023-04-11T14:55:52.542Z,44.10
2023-04-11T15:00:22.645Z,43.90
2023-04-11T15:04:31.969Z,43.90
2023-04-11T15:08:36.477Z,44.00
2023-04-11T15:12:39.411Z,44.00
2023-04-11T15:16:42.283Z,44.30
2023-04-11T15:20:44.867Z,44.90
2023-04-11T15:24:47.444Z,44.90
2023-04-11T15:28:50.196Z,45.30
2023-04-11T15:32:53.203Z,45.20
2023-04-11T15:36:59.263Z,45.20
2023-04-11T15:41:04.116Z,45.30
2023-04-11T15:45:07.132Z,45.30
2023-04-11T15:49:09.630Z,45.20
2023-04-11T15:53:12.497Z,44.90
2023-04-11T15:57:14.925Z,44.90
2023-04-11T16:01:25.729Z,45.20
2023-04-11T16:05:32.285Z,45.20
2023-04-11T16:09:35.234Z,45.50
2023-04-11T16:13:37.797Z,45.50
2023-04-11T16:17:40.693Z,45.60
2023-04-11T16:21:43.223Z,45.70
2023-04-11T16:25:46.709Z,45.30
2023-04-11T16:29:49.494Z,45.60
2023-04-11T16:33:55.387Z,45.70
2023-04-11T16:37:58.453Z,45.80
2023-04-11T16:42:01.702Z,46.20
2023-04-11T16:46:04.312Z,46.40
2023-04-11T16:50:07.021Z,46.50
2023-04-11T16:54:10.891Z,46.70
2023-04-11T16:58:13.323Z,46.90
2023-04-11T17:02:16.467Z,47.20
2023-04-11T17:06:19.306Z,47.40
2023-04-11T17:10:21.737Z,47.60
2023-04-11T17:14:25.379Z,47.60
2023-04-11T17:18:27.807Z,47.50
2023-04-11T17:22:30.790Z,47.30
2023-04-11T17:26:34.313Z,47.30
2023-04-11T17:30:37.037Z,47.10
2023-04-11T17:34:39.625Z,47.30
2023-04-11T17:38:45.681Z,47.40
2023-04-11T17:42:48.222Z,47.70
2023-04-11T17:46:51.205Z,48.00
2023-04-11T17:50:55.472Z,48.20
2023-04-11T17:54:57.920Z,48.30
2023-04-11T17:59:00.662Z,48.60
2023-04-11T18:03:03.740Z,48.60
2023-04-11T18:07:07.332Z,49.00
2023-04-11T18:11:09.998Z,49.30
2023-04-11T18:15:12.930Z,49.80
2023-04-11T18:19:15.644Z,50.40
2023-04-11T18:23:18.250Z,50.90
2023-04-11T18:27:20.784Z,51.40
2023-04-11T18:31:23.634Z,52.40
2023-04-11T18:35:26.544Z,52.40
2023-04-11T18:39:29.434Z,52.70
2023-04-11T18:43:32.148Z,52.60
2023-04-11T18:47:35.192Z,52.50
2023-04-11T18:51:38.362Z,52.50
2023-04-11T18:55:41.364Z,52.70
2023-04-11T18:59:44.708Z,52.70
2023-04-11T19:03:49.317Z,53.20
2023-04-11T19:07:51.926Z,52.90
2023-04-11T19:11:54.513Z,53.40
2023-04-11T19:15:57.093Z,53.30
2023-04-11T19:20:01.736Z,53.00
2023-04-11T19:24:05.326Z,52.70
2023-04-11T19:28:07.820Z,52.60
2023-04-11T19:32:10.459Z,52.90
2023-04-11T19:36:13.198Z,52.90
2023-04-11T19:40:15.764Z,53.20
2023-04-11T19:44:18.570Z,53.20
2023-04-11T19:48:21.117Z,53.50
2023-04-11T19:52:24.057Z,53.80
2023-04-11T19:56:26.740Z,53.90
2023-04-11T20:00:32.564Z,54.40
2023-04-11T20:04:35.044Z,54.50
2023-04-11T20:08:38.253Z,54.60
2023-04-11T20:12:40.989Z,54.40
2023-04-11T20:16:43.750Z,54.10
2023-04-11T20:20:47.037Z,53.70
2023-04-11T20:24:50.160Z,53.40
2023-04-11T20:28:53.165Z,53.20
2023-04-11T20:32:56.263Z,53.10
2023-04-11T20:37:09.086Z,53.00
2023-04-11T20:41:12.130Z,52.90
2023-04-11T20:45:15.932Z,52.80
2023-04-11T20:49:18.483Z,52.70
2023-04-11T20:53:21.069Z,52.60
2023-04-11T20:57:24.036Z,52.50
2023-04-11T21:01:26.711Z,52.40
2023-04-11T21:05:29.808Z,52.40
2023-04-11T21:09:32.292Z,52.40
2023-04-11T21:13:34.904Z,52.40
2023-04-11T21:17:39.423Z,52.30
2023-04-11T21:21:42.422Z,52.10
2023-04-11T21:25:44.992Z,52.10
2023-04-11T21:29:47.573Z,52.10
2023-04-11T21:33:50.064Z,52.10
2023-04-11T21:37:52.869Z,52.50
2023-04-11T21:41:55.372Z,52.60
2023-04-11T21:46:00.160Z,52.70
2023-04-11T21:50:02.749Z,53.20
2023-04-11T21:54:05.507Z,54.00
2023-04-11T21:58:13.291Z,54.20
2023-04-11T22:02:24.894Z,55.20
2023-04-11T22:06:30.346Z,55.40
2023-04-11T22:10:46.818Z,55.70
2023-04-11T22:14:52.830Z,56.00
2023-04-11T22:18:58.326Z,56.40
2023-04-11T22:23:00.965Z,57.20
2023-04-11T22:27:04.692Z,57.70
2023-04-11T22:31:07.546Z,57.50
2023-04-11T22:35:10.490Z,57.70
2023-04-11T22:39:12.988Z,57.50
2023-04-11T22:43:16.091Z,57.40
2023-04-11T22:47:21.908Z,57.70
2023-04-11T22:51:24.812Z,58.30
2023-04-11T22:55:28.529Z,58.80
2023-04-11T22:59:30.987Z,59.30
2023-04-11T23:03:33.503Z,59.20
2023-04-11T23:07:36.039Z,59.20
2023-04-11T23:11:38.746Z,58.90
2023-04-11T23:15:41.477Z,58.60
2023-04-11T23:19:44.191Z,58.50
2023-04-11T23:23:47.013Z,58.50
2023-04-11T23:27:49.554Z,58.40
2023-04-11T23:31:52.030Z,58.30
2023-04-11T23:35:54.556Z,58.70
2023-04-11T23:39:57.462Z,59.20
2023-04-11T23:44:00.135Z,59.50
2023-04-11T23:48:02.946Z,60.00
2023-04-11T23:52:05.630Z,60.10
2023-04-11T23:56:09.143Z,60.20
